Cleveland, Ohio
Traffic Map
Current Weather Conditions
Cleveland, Ohio
Overcast Thunderstorm
Overcast
73°
Feels Like: 73°
Wind Chill: 73° Ceiling: 800
Heat Index: 73° Visibility: 10mi
Dew Point: 70° Wind: 9mph
Humidity: 90% Direction: 360° (N)
Pressure: 29.92in Gusts: 0mph
Raw Report DataKBKL 190653Z 36008KT 10SM VCTS FEW004 BKN008 OVC022 23/21 A2992 RMK AO2 LTG DSNT S RAE36 CIG 006V011 SLP125 P0007 T02280211
Traffic Incident Summary
Active as of:
Severity:
Category:
InformationThere was an issue retrieving the traffic information for this location. Please try a different location or try again shortly.
Advertisements